Time;durP1;ratioP1;P1;durP2;ratioP2;P2;SDS_P1;SDS_P2;PMS_P1;PMS_P2;Temp;Humidity;BMP_temperature;BMP_pressure;BME280_temperature;BME280_humidity;BME280_pressure;Samples;Min_cycle;Max_cycle;Signal;HPM_P1;HPM_P2
2022/07/11 00:02:12;;;;;;;6.22;1.65;;;15.60;99.90;;;;;;5054000;28;20185;-86
2022/07/11 00:04:39;;;;;;;6.00;1.40;;;15.60;99.90;;;;;;5072499;28;20075;-86
2022/07/11 00:07:05;;;;;;;3.10;1.73;;;15.60;99.90;;;;;;5087228;28;20447;-85
2022/07/11 00:09:31;;;;;;;2.50;1.48;;;15.60;99.90;;;;;;5087784;28;20044;-85
2022/07/11 00:11:57;;;;;;;4.45;1.95;;;15.60;99.90;;;;;;5104437;28;20081;-85
2022/07/11 00:14:23;;;;;;;2.65;2.33;;;15.60;99.90;;;;;;5104750;28;20164;-85
2022/07/11 00:16:50;;;;;;;2.80;1.90;;;15.50;99.90;;;;;;5070902;28;20051;-85
2022/07/11 00:19:16;;;;;;;4.15;2.28;;;15.50;99.90;;;;;;5104233;28;20171;-85
2022/07/11 00:21:42;;;;;;;5.18;2.20;;;15.50;99.90;;;;;;5055109;28;20100;-84
2022/07/11 00:24:08;;;;;;;4.43;1.85;;;15.40;99.90;;;;;;5086065;28;20588;-85
2022/07/11 00:26:37;;;;;;;2.90;1.83;;;15.50;99.90;;;;;;5071825;28;20048;-85
2022/07/11 00:29:04;;;;;;;3.45;2.38;;;15.50;99.90;;;;;;5083600;28;20142;-86
2022/07/11 00:31:31;;;;;;;4.32;1.95;;;15.40;99.90;;;;;;5084225;28;20133;-85
2022/07/11 00:33:59;;;;;;;8.50;2.17;;;15.50;99.90;;;;;;5050957;28;20046;-85
2022/07/11 00:36:25;;;;;;;6.20;2.03;;;15.40;99.90;;;;;;5066513;28;20059;-85
2022/07/11 00:38:51;;;;;;;5.32;2.28;;;15.40;99.90;;;;;;5051817;28;20040;-84
2022/07/11 00:41:18;;;;;;;3.95;2.08;;;15.40;99.90;;;;;;5083426;28;20043;-85
2022/07/11 00:43:54;;;;;;;3.30;2.15;;;15.40;99.90;;;;;;5068206;28;20546;-85
2022/07/11 00:46:20;;;;;;;7.03;1.80;;;15.40;99.90;;;;;;5067012;28;20055;-85
2022/07/11 00:48:46;;;;;;;3.83;1.63;;;15.50;99.90;;;;;;5083882;28;20487;-85
2022/07/11 00:51:13;;;;;;;4.60;1.40;;;15.40;99.90;;;;;;5067845;28;20040;-85
2022/07/11 00:53:41;;;;;;;5.75;2.03;;;15.40;99.90;;;;;;5050901;28;20043;-85
2022/07/11 00:56:09;;;;;;;4.20;1.90;;;15.40;99.90;;;;;;5053655;28;20040;-86
2022/07/11 00:58:36;;;;;;;6.65;2.00;;;15.60;99.90;;;;;;5072216;28;20119;-85
2022/07/11 01:01:02;;;;;;;3.55;1.92;;;15.40;99.90;;;;;;5080999;28;20070;-85
2022/07/11 01:03:28;;;;;;;10.60;1.90;;;15.40;99.90;;;;;;5050988;28;20033;-85
2022/07/11 01:05:54;;;;;;;2.95;1.92;;;15.40;99.90;;;;;;5066957;28;20210;-85
2022/07/11 01:08:20;;;;;;;3.38;1.90;;;15.40;99.90;;;;;;5067420;28;20097;-85
2022/07/11 01:10:46;;;;;;;3.85;1.67;;;15.40;99.90;;;;;;5083160;28;20038;-85
2022/07/11 01:13:12;;;;;;;7.50;2.20;;;15.40;99.90;;;;;;5084471;28;20040;-86
2022/07/11 01:15:38;;;;;;;4.50;2.00;;;15.40;99.90;;;;;;5065099;28;20048;-86
2022/07/11 01:18:04;;;;;;;2.78;2.17;;;15.40;99.90;;;;;;5084765;28;20082;-86
2022/07/11 01:20:30;;;;;;;3.00;1.70;;;15.40;99.90;;;;;;5083793;28;20399;-86
2022/07/11 01:23:03;;;;;;;4.38;1.52;;;15.40;99.90;;;;;;5084370;28;20505;-85
2022/07/11 01:25:30;;;;;;;8.45;1.70;;;15.40;99.90;;;;;;5084285;28;20040;-85
2022/07/11 01:27:59;;;;;;;2.58;1.70;;;15.40;99.90;;;;;;5091983;28;20056;-85
2022/07/11 01:30:27;;;;;;;2.88;1.58;;;15.40;99.90;;;;;;5104728;28;20047;-85
2022/07/11 01:32:53;;;;;;;2.28;1.50;;;15.40;99.90;;;;;;5103785;28;20584;-85
2022/07/11 01:35:20;;;;;;;3.03;1.77;;;15.50;99.90;;;;;;5107418;28;20079;-86
2022/07/11 01:37:46;;;;;;;2.65;1.42;;;15.40;99.90;;;;;;5074441;28;20058;-86
2022/07/11 01:40:12;;;;;;;7.47;1.63;;;15.40;99.90;;;;;;5109197;28;20502;-86
2022/07/11 01:42:38;;;;;;;6.55;1.73;;;15.40;99.90;;;;;;5091828;28;20044;-85
2022/07/11 01:45:04;;;;;;;6.28;1.60;;;15.40;99.90;;;;;;5107469;28;20467;-86
2022/07/11 01:47:29;;;;;;;2.75;1.58;;;15.40;99.90;;;;;;5075602;28;20496;-86
2022/07/11 01:49:55;;;;;;;4.57;1.70;;;15.40;99.90;;;;;;5090220;28;20035;-86
2022/07/11 01:52:21;;;;;;;2.45;1.42;;;15.50;99.90;;;;;;5108793;28;20039;-85
2022/07/11 01:54:48;;;;;;;6.57;1.98;;;15.40;99.90;;;;;;5091274;28;20047;-86
2022/07/11 01:57:14;;;;;;;4.15;1.63;;;15.40;99.90;;;;;;5108231;28;20047;-86
2022/07/11 01:59:41;;;;;;;4.43;1.88;;;16.30;99.90;;;;;;5090066;28;20104;-85
2022/07/11 02:02:07;;;;;;;4.97;1.83;;;15.40;99.90;;;;;;5073469;28;20047;-85
2022/07/11 02:04:33;;;;;;;7.93;1.85;;;15.40;99.90;;;;;;5108658;28;20511;-85
2022/07/11 02:06:59;;;;;;;3.28;1.63;;;15.40;99.90;;;;;;5090226;28;20040;-85
2022/07/11 02:09:26;;;;;;;3.20;1.45;;;15.50;99.90;;;;;;5091605;28;20486;-86
2022/07/11 02:11:52;;;;;;;2.53;1.20;;;15.40;99.90;;;;;;5106632;28;20051;-86
2022/07/11 02:14:18;;;;;;;5.13;1.58;;;15.40;99.90;;;;;;5107674;28;20047;-86
2022/07/11 02:16:44;;;;;;;7.50;1.70;;;15.40;99.90;;;;;;5091245;28;20379;-86
2022/07/11 02:19:10;;;;;;;6.95;1.70;;;15.40;99.90;;;;;;5089448;28;20055;-85
2022/07/11 02:21:37;;;;;;;3.95;1.67;;;15.40;99.90;;;;;;5109289;28;20048;-84
2022/07/11 02:24:04;;;;;;;5.03;1.65;;;15.40;99.90;;;;;;5089516;28;20058;-84
2022/07/11 02:26:30;;;;;;;3.13;1.40;;;15.40;99.90;;;;;;5073973;28;20063;-84
2022/07/11 02:28:56;;;;;;;2.30;1.42;;;15.40;99.90;;;;;;5124939;27;20055;-84
2022/07/11 02:31:22;;;;;;;3.20;1.40;;;15.40;99.90;;;;;;5093239;27;20406;-85
2022/07/11 02:33:47;;;;;;;3.00;1.30;;;15.40;99.90;;;;;;5076757;27;20043;-85
2022/07/11 02:36:13;;;;;;;2.63;1.33;;;15.40;99.90;;;;;;5059069;27;20035;-85
2022/07/11 02:38:39;;;;;;;3.15;1.10;;;15.40;99.90;;;;;;5060729;27;20043;-85
2022/07/11 02:41:05;;;;;;;4.50;1.17;;;15.40;99.90;;;;;;5075365;27;20063;-84
2022/07/11 02:43:31;;;;;;;1.45;0.77;;;15.40;99.90;;;;;;5094151;27;20035;-83
2022/07/11 02:45:57;;;;;;;2.70;1.08;;;15.40;99.90;;;;;;5091489;27;20096;-83
2022/07/11 02:48:23;;;;;;;1.92;1.25;;;15.40;99.90;;;;;;5093997;27;20103;-84
2022/07/11 02:50:48;;;;;;;5.38;1.63;;;15.40;99.90;;;;;;5111278;27;20055;-84
2022/07/11 02:53:14;;;;;;;2.08;1.27;;;16.30;99.90;;;;;;5064335;27;20039;-84
2022/07/11 02:55:40;;;;;;;4.63;1.35;;;15.40;99.90;;;;;;5136428;27;20078;-84
2022/07/11 02:58:06;;;;;;;2.67;1.40;;;15.40;99.90;;;;;;5093149;27;20043;-84
2022/07/11 03:00:32;;;;;;;3.20;1.15;;;15.40;99.90;;;;;;5060380;27;20501;-84
2022/07/11 03:02:58;;;;;;;3.42;1.35;;;15.40;99.90;;;;;;5108914;27;20054;-83
2022/07/11 03:05:24;;;;;;;4.43;1.20;;;15.40;99.90;;;;;;5109889;27;20049;-84
2022/07/11 03:07:53;;;;;;;4.70;1.23;;;15.40;99.90;;;;;;5093446;27;20043;-83
2022/07/11 03:10:19;;;;;;;6.10;1.55;;;15.40;99.90;;;;;;5092119;27;20130;-84
2022/07/11 03:12:45;;;;;;;2.20;1.30;;;15.40;99.90;;;;;;5127695;27;20078;-84
2022/07/11 03:15:11;;;;;;;3.28;1.13;;;15.40;99.90;;;;;;5075016;27;20131;-84
2022/07/11 03:17:37;;;;;;;6.20;1.33;;;15.40;99.90;;;;;;5093390;27;20051;-84
2022/07/11 03:20:08;;;;;;;4.93;1.05;;;15.40;99.90;;;;;;5091905;27;20043;-83
2022/07/11 03:22:35;;;;;;;4.15;0.80;;;15.40;99.90;;;;;;5110765;27;20061;-84
2022/07/11 03:25:05;;;;;;;2.22;0.80;;;15.40;99.90;;;;;;5076602;27;20039;-84
2022/07/11 03:27:31;;;;;;;2.97;0.77;;;15.40;99.90;;;;;;5107596;27;20051;-84
2022/07/11 03:30:00;;;;;;;2.28;0.50;;;15.40;99.90;;;;;;5093270;27;20073;-83
2022/07/11 03:32:25;;;;;;;3.92;0.80;;;15.40;99.90;;;;;;5074166;27;20043;-84
2022/07/11 03:37:35;;;;;;;1.42;0.75;;;15.40;99.90;;;;;;5094085;27;20054;-84
2022/07/11 03:40:01;;;;;;;1.88;0.68;;;15.40;99.90;;;;;;5075559;27;20047;-83
2022/07/11 03:42:27;;;;;;;1.75;0.40;;;15.40;99.90;;;;;;5059124;27;20057;-84
2022/07/11 03:44:53;;;;;;;1.02;0.40;;;15.40;99.90;;;;;;5091656;27;20039;-84
2022/07/11 03:47:19;;;;;;;2.03;0.80;;;15.40;99.90;;;;;;5075621;27;20416;-85
2022/07/11 03:49:46;;;;;;;0.80;0.45;;;15.40;99.90;;;;;;5091245;27;20039;-85
2022/07/11 03:52:12;;;;;;;4.25;0.60;;;15.40;99.90;;;;;;5075561;27;20039;-85
2022/07/11 03:54:38;;;;;;;1.77;0.65;;;15.40;99.90;;;;;;5091220;27;20051;-85
2022/07/11 03:57:06;;;;;;;1.10;0.60;;;15.40;99.90;;;;;;5074830;27;20087;-84
2022/07/11 03:59:32;;;;;;;2.90;0.80;;;15.40;99.90;;;;;;5091008;27;20138;-84
2022/07/11 04:02:01;;;;;;;1.52;0.45;;;15.40;99.90;;;;;;5090157;27;20134;-84
2022/07/11 04:04:27;;;;;;;4.65;0.70;;;14.70;99.90;;;;;;5092871;27;20129;-84
2022/07/11 04:06:53;;;;;;;0.98;0.60;;;15.40;99.90;;;;;;5125389;27;20146;-85
2022/07/11 04:09:19;;;;;;;4.90;0.63;;;15.40;99.90;;;;;;5092600;27;20093;-85
2022/07/11 04:11:47;;;;;;;1.25;0.60;;;15.40;99.90;;;;;;5091392;27;20054;-85
2022/07/11 04:14:15;;;;;;;1.90;0.35;;;15.40;99.90;;;;;;5125906;27;20044;-87
2022/07/11 04:16:41;;;;;;;3.75;0.50;;;15.40;99.90;;;;;;5075064;27;20051;-86
2022/07/11 04:19:07;;;;;;;2.45;0.57;;;15.50;99.90;;;;;;5091121;27;20047;-85
2022/07/11 04:21:33;;;;;;;2.28;0.30;;;15.40;99.90;;;;;;5074810;27;20499;-86
2022/07/11 04:23:58;;;;;;;1.40;0.70;;;15.40;99.90;;;;;;5090001;27;20506;-86
2022/07/11 04:26:24;;;;;;;1.67;0.70;;;15.40;99.90;;;;;;5106995;27;20050;-85
2022/07/11 04:28:50;;;;;;;0.82;0.35;;;15.40;99.90;;;;;;5089710;27;20484;-85
2022/07/11 04:31:16;;;;;;;2.30;0.25;;;15.40;99.90;;;;;;5125753;27;20054;-85
2022/07/11 04:33:42;;;;;;;2.47;0.80;;;15.40;99.90;;;;;;5074232;27;20406;-85
2022/07/11 04:36:08;;;;;;;2.75;0.30;;;15.40;99.90;;;;;;5124894;27;20104;-86
2022/07/11 04:38:36;;;;;;;0.80;0.35;;;15.50;99.90;;;;;;5108026;27;20059;-85
2022/07/11 04:41:02;;;;;;;0.40;0.20;;;15.50;99.90;;;;;;5124384;27;20050;-84
2022/07/11 04:43:28;;;;;;;2.35;0.47;;;15.50;99.90;;;;;;5126917;27;20051;-84
2022/07/11 04:45:54;;;;;;;3.92;0.20;;;15.50;99.90;;;;;;5090168;27;21062;-83
2022/07/11 04:48:20;;;;;;;0.40;0.30;;;15.50;99.90;;;;;;5113385;27;20043;-85
2022/07/11 04:50:46;;;;;;;3.70;0.75;;;15.50;99.90;;;;;;5102863;28;20040;-86
2022/07/11 04:53:12;;;;;;;1.45;0.38;;;15.50;99.90;;;;;;5125821;27;20054;-85
2022/07/11 04:55:41;;;;;;;1.65;0.40;;;15.50;99.90;;;;;;5091186;27;20047;-85
2022/07/11 04:58:08;;;;;;;1.60;0.32;;;15.60;99.90;;;;;;5125119;27;20875;-85
2022/07/11 05:00:35;;;;;;;0.80;0.25;;;15.60;99.90;;;;;;5109038;28;20424;-84
2022/07/11 05:03:01;;;;;;;1.17;0.20;;;15.60;99.90;;;;;;5089537;28;20043;-85
2022/07/11 05:05:27;;;;;;;0.55;0.20;;;15.70;99.90;;;;;;5073977;28;20062;-85
2022/07/11 05:07:56;;;;;;;1.88;0.13;;;15.70;99.90;;;;;;5124999;28;20059;-85
2022/07/11 05:10:22;;;;;;;0.45;0.28;;;15.80;99.90;;;;;;5092156;27;20050;-85
2022/07/11 05:12:48;;;;;;;0.77;0.30;;;15.80;99.90;;;;;;5078564;27;20043;-86
2022/07/11 05:15:14;;;;;;;3.03;0.20;;;15.90;99.90;;;;;;5076503;27;20406;-85
2022/07/11 05:17:40;;;;;;;1.45;0.28;;;16.90;99.90;;;;;;5112620;27;20047;-86
2022/07/11 05:20:07;;;;;;;0.93;0.22;;;16.00;99.90;;;;;;5094027;27;20468;-86
2022/07/11 05:22:33;;;;;;;0.70;0.20;;;16.00;99.90;;;;;;5112058;27;20050;-84
2022/07/11 05:24:59;;;;;;;0.40;0.10;;;16.20;99.90;;;;;;5094303;27;20092;-87
2022/07/11 05:27:24;;;;;;;2.08;0.20;;;16.20;99.90;;;;;;5076836;27;20047;-87
2022/07/11 05:29:50;;;;;;;3.10;0.20;;;16.20;99.90;;;;;;5078075;27;20054;-86
2022/07/11 05:32:16;;;;;;;0.80;0.30;;;16.60;99.90;;;;;;5093505;27;20082;-85
2022/07/11 05:34:42;;;;;;;0.40;0.13;;;16.30;99.90;;;;;;5078022;27;20039;-85
2022/07/11 05:37:08;;;;;;;0.32;0.10;;;16.30;99.90;;;;;;5093476;27;20043;-85
2022/07/11 05:39:34;;;;;;;1.23;0.20;;;16.30;99.90;;;;;;5094026;27;20059;-85
2022/07/11 05:41:59;;;;;;;0.95;0.10;;;16.30;99.90;;;;;;5110293;27;20051;-85
2022/07/11 05:44:25;;;;;;;3.13;0.17;;;16.30;99.90;;;;;;5094325;27;20054;-85
2022/07/11 05:46:51;;;;;;;0.30;0.03;;;16.40;99.90;;;;;;5128813;27;20068;-85
2022/07/11 05:49:17;;;;;;;0.65;0.15;;;16.40;99.90;;;;;;5110180;27;20047;-85
2022/07/11 05:51:43;;;;;;;0.32;0.00;;;16.40;99.90;;;;;;5111523;27;20411;-84
2022/07/11 05:54:08;;;;;;;0.43;0.15;;;16.40;99.90;;;;;;5109628;27;20050;-85
2022/07/11 05:56:34;;;;;;;3.00;0.20;;;16.40;99.90;;;;;;5061179;27;20131;-85
2022/07/11 05:59:00;;;;;;;0.50;0.10;;;16.40;99.90;;;;;;5093195;27;20163;-85
2022/07/11 06:01:28;;;;;;;0.30;0.10;;;16.40;99.90;;;;;;5093990;27;20043;-85
2022/07/11 06:03:53;;;;;;;0.17;0.10;;;16.50;99.90;;;;;;5093699;27;20058;-85
2022/07/11 06:06:19;;;;;;;0.30;0.20;;;16.50;99.90;;;;;;5109857;27;20055;-85
2022/07/11 06:08:45;;;;;;;0.25;0.10;;;16.50;99.90;;;;;;5060650;27;20503;-85
2022/07/11 06:11:13;;;;;;;5.18;0.30;;;16.60;99.90;;;;;;5109671;27;20039;-85
2022/07/11 06:13:44;;;;;;;2.05;0.20;;;16.70;99.90;;;;;;5094761;27;20039;-84
2022/07/11 06:16:13;;;;;;;0.30;0.17;;;16.70;99.90;;;;;;5094176;27;20086;-85
2022/07/11 06:18:39;;;;;;;2.10;0.40;;;16.80;99.90;;;;;;5075821;27;20090;-85
2022/07/11 06:21:05;;;;;;;1.10;0.20;;;17.10;99.90;;;;;;5110147;27;20050;-85
2022/07/11 06:23:31;;;;;;;1.17;0.10;;;16.90;99.90;;;;;;5076181;27;20051;-85
2022/07/11 06:25:57;;;;;;;1.15;0.10;;;17.00;99.90;;;;;;5110951;27;20379;-85
2022/07/11 06:28:24;;;;;;;1.55;0.10;;;17.00;99.90;;;;;;5126818;27;20512;-85
2022/07/11 06:30:50;;;;;;;0.10;0.10;;;17.10;99.90;;;;;;5093809;27;20058;-85
2022/07/11 06:33:17;;;;;;;1.27;0.20;;;17.20;99.90;;;;;;5109343;27;20051;-85
2022/07/11 06:35:44;;;;;;;1.10;0.50;;;17.40;99.90;;;;;;5110517;27;20050;-84
2022/07/11 06:38:10;;;;;;;1.30;0.30;;;17.50;99.90;;;;;;5093282;27;20517;-85
2022/07/11 06:40:36;;;;;;;2.05;0.20;;;17.50;99.90;;;;;;5076563;27;20107;-85
2022/07/11 06:43:02;;;;;;;2.45;0.30;;;17.50;99.90;;;;;;5115343;27;20118;-84
2022/07/11 06:45:28;;;;;;;1.13;0.35;;;17.50;99.90;;;;;;5080599;27;20047;-85
2022/07/11 06:47:53;;;;;;;2.22;0.30;;;17.50;99.90;;;;;;5093709;27;20043;-85
2022/07/11 06:50:20;;;;;;;0.73;0.20;;;17.60;99.90;;;;;;5092551;27;20154;-84
2022/07/11 06:52:47;;;;;;;0.63;0.20;;;17.60;99.90;;;;;;5092699;27;20041;-84
2022/07/11 06:55:13;;;;;;;1.75;0.20;;;17.50;99.90;;;;;;5093532;27;20138;-85
2022/07/11 06:57:38;;;;;;;1.00;0.15;;;17.40;99.90;;;;;;5108260;27;20134;-85
2022/07/11 07:00:07;;;;;;;0.98;0.20;;;17.40;99.90;;;;;;5110350;27;20050;-85
2022/07/11 07:02:33;;;;;;;0.57;0.20;;;17.40;99.90;;;;;;5058690;27;20501;-85
2022/07/11 07:04:58;;;;;;;2.50;0.20;;;17.50;99.90;;;;;;5093552;27;20126;-85
2022/07/11 07:07:25;;;;;;;0.20;0.20;;;17.60;99.90;;;;;;5092073;27;20066;-85
2022/07/11 07:09:52;;;;;;;0.10;0.10;;;17.70;99.90;;;;;;5093129;27;20060;-85
2022/07/11 07:12:18;;;;;;;0.43;0.22;;;17.70;99.90;;;;;;5109606;27;20072;-85
2022/07/11 07:14:45;;;;;;;0.60;0.13;;;17.80;99.90;;;;;;5108750;27;20418;-85
2022/07/11 07:17:11;;;;;;;1.05;0.30;;;17.80;99.90;;;;;;5094959;27;20046;-85
2022/07/11 07:19:36;;;;;;;0.57;0.10;;;18.00;99.90;;;;;;5109753;27;20089;-85
2022/07/11 07:22:02;;;;;;;1.60;0.30;;;18.50;99.90;;;;;;5094904;27;20054;-85
2022/07/11 07:24:28;;;;;;;1.35;0.20;;;18.10;99.90;;;;;;5092830;27;20039;-85
2022/07/11 07:26:54;;;;;;;0.20;0.10;;;18.30;99.90;;;;;;5128713;27;20184;-85
2022/07/11 07:29:21;;;;;;;1.50;0.20;;;18.40;99.90;;;;;;5097974;27;20083;-84
2022/07/11 07:31:47;;;;;;;2.22;0.30;;;18.50;99.90;;;;;;5115840;28;20064;-84
2022/07/11 07:34:13;;;;;;;1.30;0.28;;;18.60;99.90;;;;;;5083734;27;20497;-85
2022/07/11 07:36:39;;;;;;;1.92;0.35;;;18.60;99.90;;;;;;5114522;27;20047;-86
2022/07/11 07:39:04;;;;;;;1.60;0.30;;;18.60;99.90;;;;;;5096337;27;20043;-84
2022/07/11 07:41:30;;;;;;;0.13;0.10;;;18.60;99.90;;;;;;5111890;27;20092;-86
2022/07/11 07:43:56;;;;;;;0.10;0.10;;;18.60;99.90;;;;;;5093845;27;20562;-85
2022/07/11 07:46:22;;;;;;;0.38;0.10;;;18.60;99.90;;;;;;5108780;27;20043;-85
2022/07/11 07:48:48;;;;;;;0.32;0.10;;;18.80;99.90;;;;;;5074141;27;20477;-85
2022/07/11 07:51:13;;;;;;;1.65;0.10;;;18.80;99.90;;;;;;5074943;27;20085;-85
2022/07/11 07:53:39;;;;;;;0.70;0.10;;;18.80;99.90;;;;;;5091037;27;20089;-85
2022/07/11 07:56:05;;;;;;;0.20;0.20;;;18.80;99.90;;;;;;5091400;27;20184;-85
2022/07/11 07:58:31;;;;;;;1.27;0.20;;;18.60;99.90;;;;;;5125828;27;20039;-85
2022/07/11 08:03:41;;;;;;;0.25;0.00;;;18.50;99.90;;;;;;5108448;27;20058;-85
2022/07/11 08:06:07;;;;;;;0.25;0.10;;;18.50;99.90;;;;;;5090758;27;20046;-85
2022/07/11 08:08:33;;;;;;;0.20;0.00;;;18.60;99.90;;;;;;5091234;27;20043;-84
2022/07/11 08:11:02;;;;;;;1.83;0.10;;;18.70;99.90;;;;;;5106519;27;20070;-84
2022/07/11 08:13:29;;;;;;;0.25;0.10;;;18.80;99.90;;;;;;5109147;27;20051;-85
2022/07/11 08:15:55;;;;;;;0.10;0.03;;;18.90;99.90;;;;;;5090425;27;20087;-84
2022/07/11 08:18:21;;;;;;;2.03;0.20;;;18.80;99.90;;;;;;5091616;27;20382;-85
2022/07/11 08:20:47;;;;;;;0.75;0.10;;;18.80;99.90;;;;;;5126316;27;20514;-84
2022/07/11 08:23:13;;;;;;;0.10;0.10;;;18.80;99.90;;;;;;5074269;27;20088;-84
2022/07/11 08:25:39;;;;;;;1.45;0.05;;;18.60;99.90;;;;;;5091050;27;20055;-85
2022/07/11 08:28:05;;;;;;;0.68;0.00;;;19.00;99.90;;;;;;5089731;27;20047;-85
2022/07/11 08:30:32;;;;;;;1.35;0.10;;;18.50;99.90;;;;;;5108667;27;20139;-84
2022/07/11 08:32:58;;;;;;;0.52;0.10;;;18.40;99.90;;;;;;5107079;27;20122;-85
2022/07/11 08:35:23;;;;;;;0.38;0.10;;;18.40;99.90;;;;;;5091175;27;20131;-85
2022/07/11 08:37:49;;;;;;;0.47;0.13;;;18.40;99.90;;;;;;5079712;27;20422;-84
2022/07/11 08:40:15;;;;;;;0.38;0.22;;;18.40;99.90;;;;;;5126188;27;20094;-85
2022/07/11 08:42:43;;;;;;;1.67;0.40;;;18.40;99.90;;;;;;5091409;27;20035;-85
2022/07/11 08:45:16;;;;;;;0.80;0.20;;;18.50;99.90;;;;;;5107018;27;20043;-84
2022/07/11 08:47:44;;;;;;;0.57;0.13;;;18.60;99.90;;;;;;5091527;27;20086;-84
2022/07/11 08:50:12;;;;;;;0.68;0.10;;;18.60;99.90;;;;;;5056572;28;20504;-85
2022/07/11 08:52:38;;;;;;;0.40;0.20;;;18.70;99.90;;;;;;5073499;28;20077;-85
2022/07/11 08:55:08;;;;;;;0.22;0.08;;;18.70;99.90;;;;;;5091029;27;20043;-85
2022/07/11 08:57:38;;;;;;;0.10;0.08;;;18.80;99.90;;;;;;5106822;28;20043;-85
2022/07/11 09:00:08;;;;;;;0.00;0.00;;;18.90;99.90;;;;;;5091472;27;20062;-85
2022/07/11 09:02:34;;;;;;;1.33;0.10;;;18.90;99.90;;;;;;5089895;27;20367;-84
2022/07/11 09:05:05;;;;;;;0.20;0.10;;;18.80;99.90;;;;;;5075242;28;20039;-85
2022/07/11 09:07:32;;;;;;;1.55;0.10;;;18.80;99.90;;;;;;5106989;28;20050;-85
2022/07/11 09:09:57;;;;;;;0.00;0.00;;;18.80;99.90;;;;;;5073517;28;20042;-84
2022/07/11 09:12:23;;;;;;;0.35;0.00;;;18.80;99.90;;;;;;5091071;28;20129;-84
2022/07/11 09:14:51;;;;;;;1.15;0.10;;;18.90;99.90;;;;;;5090137;28;20150;-85
2022/07/11 09:17:30;;;;;;;3.30;0.10;;;19.10;99.90;;;;;;5090732;28;20117;-85
2022/07/11 09:19:56;;;;;;;0.38;0.00;;;19.20;99.90;;;;;;5090037;28;20039;-85
2022/07/11 09:25:24;;;;;;;0.10;0.03;;;19.10;99.90;;;;;;5107413;28;20074;-85
2022/07/11 09:28:05;;;;;;;0.10;0.10;;;19.10;99.90;;;;;;5106341;28;20138;-85
2022/07/11 09:30:32;;;;;;;0.85;0.00;;;18.40;99.90;;;;;;5108084;28;20047;-84
2022/07/11 09:33:05;;;;;;;0.13;0.00;;;19.00;99.90;;;;;;5106267;28;20074;-85
2022/07/11 09:35:36;;;;;;;0.22;0.00;;;18.90;99.90;;;;;;5090162;28;20043;-85
2022/07/11 09:38:04;;;;;;;0.80;0.10;;;18.80;99.90;;;;;;5090198;28;20084;-85
2022/07/11 09:40:30;;;;;;;0.00;0.00;;;18.70;99.90;;;;;;5089513;28;20035;-85
2022/07/11 09:42:57;;;;;;;0.88;0.08;;;18.70;99.90;;;;;;5057285;28;20035;-85
2022/07/11 09:45:26;;;;;;;0.95;0.10;;;18.70;99.90;;;;;;5072012;28;20077;-85
2022/07/11 09:47:54;;;;;;;0.08;0.00;;;18.80;99.90;;;;;;5107509;28;20047;-85
2022/07/11 09:50:29;;;;;;;0.20;0.00;;;18.90;99.90;;;;;;5106745;28;20092;-84
2022/07/11 09:53:04;;;;;;;0.10;0.00;;;18.90;99.90;;;;;;5107220;28;20511;-85
2022/07/11 09:55:38;;;;;;;0.20;0.00;;;18.90;99.90;;;;;;5091168;27;20047;-85
2022/07/11 09:58:09;;;;;;;0.10;0.03;;;18.90;99.90;;;;;;5093184;27;20039;-85
2022/07/11 10:00:36;;;;;;;0.22;0.10;;;18.80;99.90;;;;;;5111322;27;20134;-85
2022/07/11 10:03:03;;;;;;;0.10;0.03;;;18.70;99.90;;;;;;5076507;27;20046;-85
2022/07/11 10:05:30;;;;;;;1.63;0.15;;;18.70;99.90;;;;;;5076588;27;20039;-85
2022/07/11 10:07:57;;;;;;;0.68;0.10;;;18.60;99.90;;;;;;5060860;27;20424;-84
2022/07/11 10:10:24;;;;;;;0.73;0.10;;;18.70;99.90;;;;;;5110572;27;20047;-85
2022/07/11 10:12:51;;;;;;;0.38;0.00;;;18.60;99.90;;;;;;5077712;27;20442;-86
2022/07/11 10:15:23;;;;;;;0.82;0.20;;;18.60;99.90;;;;;;5075438;27;20118;-85
2022/07/11 10:17:58;;;;;;;0.10;0.10;;;18.60;99.90;;;;;;5094086;27;20043;-85
2022/07/11 10:20:42;;;;;;;0.10;0.00;;;18.80;99.90;;;;;;5093466;27;20096;-85
2022/07/11 10:23:32;;;;;;;0.08;0.00;;;18.90;99.90;;;;;;5092904;27;20038;-84
2022/07/11 10:26:07;;;;;;;0.15;0.05;;;19.00;99.90;;;;;;5111139;27;20043;-84
2022/07/11 10:28:32;;;;;;;0.43;0.10;;;19.00;99.90;;;;;;5092274;27;20059;-84
2022/07/11 10:31:01;;;;;;;0.20;0.10;;;19.10;99.90;;;;;;5094185;27;20039;-85
2022/07/11 10:33:28;;;;;;;0.35;0.10;;;19.10;99.90;;;;;;5103378;27;20035;-85
2022/07/11 10:35:54;;;;;;;0.25;0.10;;;19.10;99.90;;;;;;5099728;27;20111;-85
2022/07/11 10:38:21;;;;;;;1.00;0.20;;;19.00;99.90;;;;;;5077577;27;20039;-85
2022/07/11 10:40:48;;;;;;;0.40;0.10;;;18.90;99.90;;;;;;5091965;27;20039;-85
2022/07/11 10:43:41;;;;;;;1.02;0.17;;;18.90;99.90;;;;;;5094215;27;20183;-85
2022/07/11 10:46:18;;;;;;;0.15;0.10;;;19.00;99.90;;;;;;5093451;27;20054;-85
2022/07/11 10:49:15;;;;;;;1.10;0.20;;;19.00;99.90;;;;;;5076298;27;20039;-85
2022/07/11 10:51:41;;;;;;;0.35;0.10;;;18.90;99.90;;;;;;5110649;27;20084;-85
2022/07/11 10:54:22;;;;;;;0.88;0.30;;;19.10;99.90;;;;;;5108986;27;20106;-85
2022/07/11 10:56:51;;;;;;;1.00;0.20;;;19.20;99.90;;;;;;5092676;27;20045;-85
2022/07/11 10:59:19;;;;;;;0.45;0.10;;;19.30;99.90;;;;;;5109336;27;20054;-85
2022/07/11 11:02:09;;;;;;;1.15;0.25;;;19.30;99.90;;;;;;5092399;27;20039;-85
2022/07/11 11:04:47;;;;;;;1.35;0.30;;;19.40;99.90;;;;;;5110287;27;20172;-85
2022/07/11 11:07:48;;;;;;;0.32;0.20;;;19.30;99.90;;;;;;5107992;27;20399;-85
2022/07/11 11:10:29;;;;;;;1.08;0.40;;;19.40;99.90;;;;;;5007050;28;20057;-85
2022/07/11 11:13:07;;;;;;;0.45;0.10;;;19.40;99.90;;;;;;5082800;27;20047;-85
2022/07/11 11:15:50;;;;;;;0.95;0.13;;;19.40;99.90;;;;;;5091139;27;20047;-85
2022/07/11 11:18:22;;;;;;;0.85;0.10;;;19.50;99.90;;;;;;5092129;27;20095;-85
2022/07/11 11:21:09;;;;;;;0.43;0.10;;;19.70;99.90;;;;;;5092266;27;20524;-85
2022/07/11 11:23:36;;;;;;;0.35;0.00;;;20.20;99.90;;;;;;5074358;27;20043;-85
2022/07/11 11:26:10;;;;;;;0.63;0.10;;;19.90;99.90;;;;;;5093321;27;20031;-86
2022/07/11 11:28:37;;;;;;;0.00;0.00;;;19.90;99.90;;;;;;5088005;28;20066;-85
2022/07/11 11:31:08;;;;;;;1.83;0.20;;;20.00;99.90;;;;;;5105929;28;20079;-85
2022/07/11 11:33:36;;;;;;;0.10;0.00;;;19.90;99.90;;;;;;5071998;28;20118;-85
2022/07/11 11:36:06;;;;;;;0.10;0.10;;;19.90;99.90;;;;;;5104850;28;20129;-85
2022/07/11 11:38:37;;;;;;;0.28;0.08;;;19.90;99.90;;;;;;5089850;28;20035;-84
2022/07/11 11:41:45;;;;;;;0.00;0.00;;;20.00;99.90;;;;;;5104114;28;20129;-85
2022/07/11 11:44:11;;;;;;;1.38;0.13;;;20.10;99.90;;;;;;5104886;28;20032;-85
2022/07/11 11:46:36;;;;;;;3.72;0.32;;;20.10;99.90;;;;;;5088900;28;20058;-85
2022/07/11 11:59:35;;;;;;;3.95;0.25;;;20.40;99.90;;;;;;5105675;28;20092;-85
2022/07/11 12:02:00;;;;;;;0.95;0.10;;;20.40;99.90;;;;;;5104074;28;20448;-85
2022/07/11 12:04:31;;;;;;;1.75;0.20;;;20.40;99.90;;;;;;5055234;28;20038;-85
2022/07/11 12:06:57;;;;;;;3.78;0.30;;;20.40;99.90;;;;;;5103848;28;20043;-85
2022/07/11 12:10:08;;;;;;;0.55;0.20;;;20.30;99.90;;;;;;5087851;28;20054;-86
2022/07/11 12:14:55;;;;;;;4.80;0.20;;;20.30;99.90;;;;;;5105417;28;20120;-85
2022/07/11 12:17:26;;;;;;;0.30;0.10;;;20.20;99.90;;;;;;5071705;28;20055;-85
2022/07/11 12:19:52;;;;;;;1.52;0.50;;;20.10;99.90;;;;;;5103475;28;20093;-85
2022/07/11 12:22:18;;;;;;;0.90;0.20;;;20.10;99.90;;;;;;5070982;28;20036;-85
2022/07/11 12:24:49;;;;;;;1.45;0.32;;;20.10;99.90;;;;;;5087630;28;20039;-85
2022/07/11 12:27:22;;;;;;;0.70;0.22;;;20.10;99.90;;;;;;5088969;27;20436;-85
2022/07/11 12:29:50;;;;;;;0.13;0.10;;;20.10;99.90;;;;;;5105013;27;20066;-84
2022/07/11 12:32:18;;;;;;;0.20;0.10;;;20.10;99.90;;;;;;5077975;27;20506;-85
2022/07/11 12:34:46;;;;;;;1.17;0.20;;;20.60;99.90;;;;;;5108894;27;20528;-85
2022/07/11 12:37:16;;;;;;;0.73;0.00;;;20.10;99.90;;;;;;5090361;27;20482;-85
2022/07/11 12:39:51;;;;;;;0.47;0.10;;;20.10;99.90;;;;;;5108308;27;20070;-85
2022/07/11 12:42:27;;;;;;;1.88;0.10;;;20.00;99.90;;;;;;5108487;27;20055;-85
2022/07/11 12:45:07;;;;;;;0.22;0.10;;;20.10;99.90;;;;;;5106694;27;20054;-86
2022/07/11 12:47:35;;;;;;;0.25;0.03;;;20.20;99.90;;;;;;5091452;27;20081;-85
2022/07/11 12:50:16;;;;;;;0.15;0.00;;;20.20;99.90;;;;;;5107149;27;20122;-85
2022/07/11 12:52:46;;;;;;;0.50;0.03;;;20.40;99.90;;;;;;5107325;28;20043;-87
2022/07/11 12:55:24;;;;;;;0.55;0.10;;;20.40;99.90;;;;;;5108179;27;20043;-88
2022/07/11 12:58:08;;;;;;;0.00;0.00;;;20.40;99.90;;;;;;5107114;27;20039;-86
2022/07/11 13:00:59;;;;;;;0.20;0.10;;;20.40;99.90;;;;;;5107822;27;20086;-86
2022/07/11 13:03:36;;;;;;;2.20;0.35;;;20.50;99.90;;;;;;5090695;27;20043;-86
2022/07/11 13:06:05;;;;;;;0.45;0.10;;;20.50;99.90;;;;;;5090323;28;20143;-85
2022/07/11 13:08:41;;;;;;;0.10;0.10;;;20.50;99.90;;;;;;5090973;28;20510;-85
2022/07/11 13:11:07;;;;;;;0.00;0.00;;;20.40;99.90;;;;;;5090280;28;20047;-85
2022/07/11 13:13:33;;;;;;;0.35;0.05;;;20.40;99.90;;;;;;5090740;28;20122;-86
2022/07/11 13:15:59;;;;;;;0.22;0.10;;;20.40;99.90;;;;;;5107573;28;20047;-85